Time;durP1;ratioP1;P1;durP2;ratioP2;P2;SDS_P1;SDS_P2;PMS_P1;PMS_P2;Temp;Humidity;BMP_temperature;BMP_pressure;BME280_temperature;BME280_humidity;BME280_pressure;Samples;Min_cycle;Max_cycle;Signal;HPM_P1;HPM_P2
2023/08/05 00:02:17;;;;;;;8.95;4.97;;;;;;;;;;5002534;28;20591;-74
2023/08/05 00:04:42;;;;;;;7.07;5.20;;;;;;;;;;4992915;28;20183;-73
2023/08/05 00:07:08;;;;;;;8.85;5.18;;;;;;;;;;5002987;28;20214;-74
2023/08/05 00:09:33;;;;;;;8.05;5.20;;;;;;;;;;5010586;28;20630;-73
2023/08/05 00:11:58;;;;;;;8.23;5.07;;;;;;;;;;5012957;28;20195;-73
2023/08/05 00:14:24;;;;;;;9.40;4.82;;;;;;;;;;5011140;28;20651;-74
2023/08/05 00:16:49;;;;;;;9.82;4.80;;;;;;;;;;5009811;28;20207;-74
2023/08/05 00:19:14;;;;;;;9.85;5.32;;;;;;;;;;4993703;28;20222;-74
2023/08/05 00:21:40;;;;;;;5.68;4.50;;;;;;;;;;5009932;28;20689;-74
2023/08/05 00:24:05;;;;;;;9.00;4.57;;;;;;;;;;5011519;28;20286;-74
2023/08/05 00:26:31;;;;;;;8.10;5.00;;;;;;;;;;5012076;28;20288;-74
2023/08/05 00:28:56;;;;;;;9.18;5.03;;;;;;;;;;5009999;28;20230;-74
2023/08/05 00:31:21;;;;;;;9.88;5.07;;;;;;;;;;5002927;28;20186;-74
2023/08/05 00:33:47;;;;;;;8.93;4.90;;;;;;;;;;4993782;28;20278;-74
2023/08/05 00:36:12;;;;;;;6.82;4.78;;;;;;;;;;5010008;28;20198;-73
2023/08/05 00:38:38;;;;;;;8.85;4.75;;;;;;;;;;5002096;28;20207;-73
2023/08/05 00:41:03;;;;;;;7.72;4.88;;;;;;;;;;4991267;28;20184;-73
2023/08/05 00:43:28;;;;;;;8.30;5.10;;;;;;;;;;4983906;28;20201;-73
2023/08/05 00:45:57;;;;;;;8.63;4.70;;;;;;;;;;4988323;28;20265;-72
2023/08/05 00:48:22;;;;;;;9.25;5.30;;;;;;;;;;5001471;28;20248;-73
2023/08/05 00:50:47;;;;;;;8.02;4.97;;;;;;;;;;5003121;28;20217;-73
2023/08/05 00:53:14;;;;;;;7.63;4.80;;;;;;;;;;4990949;28;20282;-74
2023/08/05 00:55:40;;;;;;;7.72;5.03;;;;;;;;;;5008943;28;20187;-73
2023/08/05 00:58:06;;;;;;;11.48;5.43;;;;;;;;;;4991609;28;20657;-73
2023/08/05 01:00:31;;;;;;;6.60;4.93;;;;;;;;;;5009228;28;20268;-73
2023/08/05 01:02:57;;;;;;;11.05;5.55;;;;;;;;;;5008086;28;20498;-74
2023/08/05 01:05:24;;;;;;;9.25;5.60;;;;;;;;;;5008424;28;20230;-74
2023/08/05 01:07:49;;;;;;;6.57;5.30;;;;;;;;;;4985925;28;20215;-74
2023/08/05 01:10:15;;;;;;;8.38;5.25;;;;;;;;;;5008547;28;20182;-72
2023/08/05 01:12:41;;;;;;;8.15;5.38;;;;;;;;;;5009813;28;20538;-73
2023/08/05 01:15:07;;;;;;;9.48;5.90;;;;;;;;;;5010520;28;20628;-73
2023/08/05 01:17:33;;;;;;;9.60;4.80;;;;;;;;;;4988515;28;20194;-73
2023/08/05 01:20:00;;;;;;;10.02;4.90;;;;;;;;;;5007817;28;20281;-74
2023/08/05 01:22:41;;;;;;;6.75;4.78;;;;;;;;;;5006663;28;20193;-73
2023/08/05 01:25:27;;;;;;;8.45;4.88;;;;;;;;;;4990765;28;20281;-72
2023/08/05 01:27:54;;;;;;;7.60;5.15;;;;;;;;;;4996207;28;20183;-72
2023/08/05 01:30:22;;;;;;;8.15;5.47;;;;;;;;;;5009450;28;20213;-73
2023/08/05 01:32:49;;;;;;;10.80;5.28;;;;;;;;;;4993322;28;20210;-73
2023/08/05 01:35:14;;;;;;;9.18;5.05;;;;;;;;;;4992476;28;20221;-74
2023/08/05 01:37:40;;;;;;;7.75;5.88;;;;;;;;;;4991258;28;20248;-73
2023/08/05 01:40:06;;;;;;;10.13;4.93;;;;;;;;;;5000397;28;20207;-72
2023/08/05 01:42:31;;;;;;;6.93;5.35;;;;;;;;;;5008920;28;20732;-73
2023/08/05 01:44:56;;;;;;;13.63;5.38;;;;;;;;;;5005641;28;20241;-73
2023/08/05 01:47:22;;;;;;;9.60;5.00;;;;;;;;;;5000321;28;20678;-73
2023/08/05 01:49:47;;;;;;;11.55;5.38;;;;;;;;;;5002962;28;20203;-72
2023/08/05 01:52:12;;;;;;;9.98;5.95;;;;;;;;;;4994463;28;20223;-73
2023/08/05 01:54:38;;;;;;;8.18;5.43;;;;;;;;;;4994787;28;20724;-73
2023/08/05 01:57:04;;;;;;;11.98;5.70;;;;;;;;;;5010067;28;20263;-73
2023/08/05 01:59:29;;;;;;;8.93;6.18;;;;;;;;;;4999496;28;20239;-73
2023/08/05 02:01:54;;;;;;;8.70;5.57;;;;;;;;;;4994597;28;20218;-73
2023/08/05 02:04:20;;;;;;;11.02;5.65;;;;;;;;;;4991109;28;20234;-73
2023/08/05 02:06:45;;;;;;;11.13;6.40;;;;;;;;;;5007857;28;20211;-75
2023/08/05 02:09:10;;;;;;;10.50;5.70;;;;;;;;;;4991970;28;20281;-72
2023/08/05 02:11:36;;;;;;;8.45;5.30;;;;;;;;;;4997422;28;20198;-74
2023/08/05 02:14:02;;;;;;;7.72;5.68;;;;;;;;;;4996928;28;20290;-74
2023/08/05 02:16:28;;;;;;;7.15;5.63;;;;;;;;;;5003656;28;20569;-74
2023/08/05 02:18:53;;;;;;;8.10;5.82;;;;;;;;;;4992718;28;20222;-74
2023/08/05 02:21:19;;;;;;;10.73;5.38;;;;;;;;;;5000027;28;20500;-74
2023/08/05 02:23:44;;;;;;;8.15;5.47;;;;;;;;;;5000995;28;20285;-74
2023/08/05 02:26:10;;;;;;;9.85;5.65;;;;;;;;;;4984665;28;20700;-74
2023/08/05 02:28:35;;;;;;;7.63;5.15;;;;;;;;;;5007710;28;20242;-74
2023/08/05 02:31:01;;;;;;;8.45;5.13;;;;;;;;;;4967274;28;20197;-74
2023/08/05 02:33:26;;;;;;;8.23;5.30;;;;;;;;;;4996123;28;20199;-74
2023/08/05 02:36:02;;;;;;;9.35;5.88;;;;;;;;;;4997341;28;20261;-73
2023/08/05 02:38:27;;;;;;;6.85;4.97;;;;;;;;;;4997469;28;20281;-74
2023/08/05 02:40:53;;;;;;;9.63;5.40;;;;;;;;;;5000074;28;20597;-73
2023/08/05 02:43:18;;;;;;;9.98;5.60;;;;;;;;;;5004912;28;20194;-73
2023/08/05 02:45:44;;;;;;;11.90;5.97;;;;;;;;;;5001600;28;20643;-73
2023/08/05 02:48:09;;;;;;;7.60;5.25;;;;;;;;;;5010175;28;20233;-73
2023/08/05 02:50:35;;;;;;;8.98;5.40;;;;;;;;;;5010007;28;20561;-73
2023/08/05 02:53:00;;;;;;;8.13;5.20;;;;;;;;;;4997253;28;20646;-73
2023/08/05 02:55:27;;;;;;;9.98;6.03;;;;;;;;;;5010077;28;20187;-73
2023/08/05 02:57:52;;;;;;;10.57;5.15;;;;;;;;;;5007194;28;20183;-74
2023/08/05 03:00:18;;;;;;;9.77;4.55;;;;;;;;;;5013788;28;20205;-72
2023/08/05 03:02:43;;;;;;;8.57;5.38;;;;;;;;;;5007609;28;20209;-74
2023/08/05 03:05:08;;;;;;;7.25;5.43;;;;;;;;;;4996676;28;20187;-74
2023/08/05 03:07:34;;;;;;;8.02;5.63;;;;;;;;;;4995680;28;20588;-74
2023/08/05 03:09:59;;;;;;;9.52;5.80;;;;;;;;;;4976195;28;20303;-74
2023/08/05 03:12:24;;;;;;;7.63;5.15;;;;;;;;;;5021595;28;20516;-74
2023/08/05 03:14:53;;;;;;;13.13;5.93;;;;;;;;;;5008308;28;20198;-74
2023/08/05 03:17:18;;;;;;;10.00;6.18;;;;;;;;;;5010410;28;20679;-74
2023/08/05 03:19:44;;;;;;;9.98;6.28;;;;;;;;;;4993133;28;20261;-74
2023/08/05 03:22:09;;;;;;;11.45;6.05;;;;;;;;;;5004742;28;20227;-74
2023/08/05 03:24:34;;;;;;;11.05;6.57;;;;;;;;;;5004162;28;20277;-74
2023/08/05 03:27:00;;;;;;;11.02;6.50;;;;;;;;;;4990018;28;20210;-74
2023/08/05 03:29:25;;;;;;;10.50;6.70;;;;;;;;;;5006852;28;20230;-74
2023/08/05 03:31:50;;;;;;;10.70;7.00;;;;;;;;;;4993031;28;20651;-74
2023/08/05 03:34:18;;;;;;;16.55;7.30;;;;;;;;;;4989737;28;20304;-73
2023/08/05 03:36:43;;;;;;;13.35;7.20;;;;;;;;;;4998901;28;20624;-73
2023/08/05 03:39:08;;;;;;;11.82;7.82;;;;;;;;;;5010846;28;20265;-73
2023/08/05 03:41:34;;;;;;;13.07;7.10;;;;;;;;;;4993524;28;20222;-73
2023/08/05 03:44:01;;;;;;;13.52;8.40;;;;;;;;;;4997688;28;20206;-73
2023/08/05 03:46:27;;;;;;;8.93;6.55;;;;;;;;;;4991854;28;20246;-72
2023/08/05 03:48:53;;;;;;;12.18;7.35;;;;;;;;;;4994113;28;20650;-72
2023/08/05 03:51:18;;;;;;;9.02;6.72;;;;;;;;;;4993254;28;20283;-73
2023/08/05 03:53:43;;;;;;;11.23;6.35;;;;;;;;;;4992831;28;20574;-72
2023/08/05 03:56:09;;;;;;;9.57;6.63;;;;;;;;;;5009852;28;20305;-74
2023/08/05 03:58:34;;;;;;;9.93;6.95;;;;;;;;;;5014921;28;20230;-73
2023/08/05 04:01:01;;;;;;;13.77;7.00;;;;;;;;;;5005368;28;20195;-73
2023/08/05 04:03:28;;;;;;;10.07;6.85;;;;;;;;;;5001171;28;20300;-72
2023/08/05 04:05:54;;;;;;;11.48;7.00;;;;;;;;;;5008729;28;20210;-72
2023/08/05 04:08:20;;;;;;;9.32;6.75;;;;;;;;;;4993311;28;20676;-72
2023/08/05 04:10:45;;;;;;;8.68;6.68;;;;;;;;;;4994319;28;20195;-73
2023/08/05 04:13:11;;;;;;;12.05;6.53;;;;;;;;;;5008519;28;20235;-73
2023/08/05 04:15:38;;;;;;;9.45;6.40;;;;;;;;;;4998982;28;20198;-73
2023/08/05 04:18:04;;;;;;;7.78;5.78;;;;;;;;;;5005777;28;20225;-73
2023/08/05 04:20:30;;;;;;;8.68;6.03;;;;;;;;;;5012460;28;20617;-73
2023/08/05 04:22:55;;;;;;;10.30;5.90;;;;;;;;;;5009854;28;20280;-72
2023/08/05 04:25:21;;;;;;;9.35;5.45;;;;;;;;;;5020799;28;20183;-73
2023/08/05 04:27:47;;;;;;;8.27;6.03;;;;;;;;;;5009287;28;20723;-73
2023/08/05 04:30:12;;;;;;;11.98;6.63;;;;;;;;;;5007701;28;20191;-72
2023/08/05 04:32:39;;;;;;;7.55;6.22;;;;;;;;;;4990743;28;20662;-73
2023/08/05 04:35:05;;;;;;;9.02;6.00;;;;;;;;;;5009092;28;20190;-74
2023/08/05 04:37:31;;;;;;;9.02;6.13;;;;;;;;;;5011217;28;20244;-73
2023/08/05 04:39:56;;;;;;;11.48;6.25;;;;;;;;;;5009954;28;20197;-74
2023/08/05 04:42:22;;;;;;;9.73;6.53;;;;;;;;;;5014386;28;20202;-72
2023/08/05 04:44:47;;;;;;;8.82;6.47;;;;;;;;;;4994692;28;20649;-73
2023/08/05 04:47:13;;;;;;;8.68;6.38;;;;;;;;;;5009687;28;20206;-73
2023/08/05 04:49:42;;;;;;;8.82;6.32;;;;;;;;;;4975364;28;20296;-73
2023/08/05 04:52:08;;;;;;;8.52;6.13;;;;;;;;;;5010611;28;20190;-74
2023/08/05 04:54:44;;;;;;;10.88;6.40;;;;;;;;;;5014920;28;20205;-74
2023/08/05 04:57:10;;;;;;;12.35;6.47;;;;;;;;;;5011785;28;20317;-74
2023/08/05 04:59:35;;;;;;;7.22;5.97;;;;;;;;;;4992722;28;20301;-73
2023/08/05 05:02:01;;;;;;;9.07;6.13;;;;;;;;;;5010476;28;20229;-73
2023/08/05 05:04:26;;;;;;;11.07;7.10;;;;;;;;;;5013953;28;20195;-74
2023/08/05 05:06:52;;;;;;;13.73;6.50;;;;;;;;;;5006317;28;20242;-74
2023/08/05 05:09:17;;;;;;;9.75;8.00;;;;;;;;;;5005089;28;20235;-74
2023/08/05 05:11:43;;;;;;;11.48;7.45;;;;;;;;;;5020383;28;20183;-74
2023/08/05 05:14:08;;;;;;;10.98;7.63;;;;;;;;;;4979079;28;20281;-73
2023/08/05 05:16:34;;;;;;;9.95;7.72;;;;;;;;;;4990025;28;20406;-74
2023/08/05 05:18:59;;;;;;;10.10;7.72;;;;;;;;;;5001657;28;20550;-74
2023/08/05 05:21:24;;;;;;;10.80;7.78;;;;;;;;;;5004207;28;20226;-74
2023/08/05 05:23:50;;;;;;;10.65;7.30;;;;;;;;;;4991483;28;20195;-74
2023/08/05 05:26:15;;;;;;;11.38;6.90;;;;;;;;;;5008401;28;20595;-74
2023/08/05 05:28:40;;;;;;;14.07;7.30;;;;;;;;;;4999637;28;20309;-74
2023/08/05 05:31:06;;;;;;;10.35;6.93;;;;;;;;;;5002954;28;20634;-74
2023/08/05 05:33:31;;;;;;;9.57;6.45;;;;;;;;;;5001717;28;20206;-72
2023/08/05 05:35:57;;;;;;;12.52;6.63;;;;;;;;;;5006522;28;20738;-72
2023/08/05 05:38:22;;;;;;;8.80;6.38;;;;;;;;;;5002941;28;20202;-74
2023/08/05 05:40:47;;;;;;;10.98;6.95;;;;;;;;;;5006420;28;20661;-74
2023/08/05 05:43:13;;;;;;;10.98;6.32;;;;;;;;;;4987057;28;20207;-72
2023/08/05 05:45:39;;;;;;;9.73;7.18;;;;;;;;;;4985323;28;20191;-74
2023/08/05 05:48:05;;;;;;;9.70;6.75;;;;;;;;;;5012049;28;20640;-74
2023/08/05 05:50:30;;;;;;;13.32;5.90;;;;;;;;;;5000263;28;20227;-74
2023/08/05 05:52:56;;;;;;;15.23;6.40;;;;;;;;;;4992778;28;20277;-74
2023/08/05 05:55:21;;;;;;;14.70;6.25;;;;;;;;;;5011028;28;20530;-74
2023/08/05 05:57:48;;;;;;;9.25;5.65;;;;;;;;;;4999614;28;20207;-75
2023/08/05 06:00:14;;;;;;;15.07;5.80;;;;;;;;;;4988751;28;20550;-74
2023/08/05 06:02:41;;;;;;;8.57;5.93;;;;;;;;;;5006863;28;20199;-74
2023/08/05 06:05:07;;;;;;;11.43;5.50;;;;;;;;;;5001186;28;20353;-74
2023/08/05 06:07:33;;;;;;;9.68;5.90;;;;;;;;;;4992999;28;20294;-74
2023/08/05 06:09:58;;;;;;;10.57;5.70;;;;;;;;;;5003973;28;20242;-74
2023/08/05 06:12:24;;;;;;;8.70;5.70;;;;;;;;;;5008911;28;20197;-74
2023/08/05 06:14:50;;;;;;;8.10;5.15;;;;;;;;;;5005370;28;20582;-74
2023/08/05 06:17:16;;;;;;;10.35;6.00;;;;;;;;;;5018431;28;20208;-74
2023/08/05 06:19:42;;;;;;;10.13;6.00;;;;;;;;;;5016438;28;20242;-74
2023/08/05 06:22:07;;;;;;;11.20;6.20;;;;;;;;;;5010395;28;20194;-74
2023/08/05 06:24:33;;;;;;;7.85;5.95;;;;;;;;;;4995804;28;20230;-73
2023/08/05 06:26:58;;;;;;;10.23;6.43;;;;;;;;;;5016216;28;20305;-73
2023/08/05 06:29:24;;;;;;;10.07;6.97;;;;;;;;;;5010264;28;20225;-74
2023/08/05 06:31:49;;;;;;;11.57;5.80;;;;;;;;;;5010880;28;20651;-73
2023/08/05 06:34:14;;;;;;;9.65;6.20;;;;;;;;;;5009304;28;20245;-74
2023/08/05 06:36:40;;;;;;;9.63;6.13;;;;;;;;;;5007750;28;20205;-74
2023/08/05 06:39:05;;;;;;;10.02;6.22;;;;;;;;;;4998340;28;20195;-74
2023/08/05 06:41:31;;;;;;;9.07;5.70;;;;;;;;;;5007186;28;20206;-74
2023/08/05 06:43:56;;;;;;;8.82;5.45;;;;;;;;;;4999317;28;20233;-74
2023/08/05 06:46:21;;;;;;;7.35;4.95;;;;;;;;;;5007916;28;20661;-72
2023/08/05 06:48:47;;;;;;;7.75;4.20;;;;;;;;;;5012231;28;20187;-73
2023/08/05 06:51:12;;;;;;;7.75;4.30;;;;;;;;;;5004734;28;20191;-73
2023/08/05 06:53:41;;;;;;;8.43;4.30;;;;;;;;;;5008148;28;20216;-74
2023/08/05 06:56:06;;;;;;;10.27;3.75;;;;;;;;;;5000108;28;20183;-74
2023/08/05 06:58:31;;;;;;;8.90;3.70;;;;;;;;;;5009324;28;20217;-74
2023/08/05 07:00:57;;;;;;;7.20;3.08;;;;;;;;;;5007083;28;20317;-74
2023/08/05 07:03:23;;;;;;;6.28;3.10;;;;;;;;;;4995601;28;20187;-74
2023/08/05 07:05:48;;;;;;;9.35;4.10;;;;;;;;;;5005626;28;20190;-73
2023/08/05 07:08:14;;;;;;;8.52;3.38;;;;;;;;;;4994266;28;20190;-73
2023/08/05 07:10:39;;;;;;;7.40;3.00;;;;;;;;;;5009683;28;20647;-74
2023/08/05 07:13:06;;;;;;;9.15;2.70;;;;;;;;;;5023629;28;20248;-73
2023/08/05 07:15:38;;;;;;;8.32;3.72;;;;;;;;;;5005300;28;20191;-74
2023/08/05 07:18:04;;;;;;;9.20;3.30;;;;;;;;;;5000750;28;20215;-74
2023/08/05 07:20:30;;;;;;;4.95;2.45;;;;;;;;;;5010710;28;20540;-73
2023/08/05 07:22:55;;;;;;;7.95;2.95;;;;;;;;;;4994846;28;20274;-73
2023/08/05 07:25:20;;;;;;;9.43;3.05;;;;;;;;;;4994910;28;20198;-72
2023/08/05 07:27:46;;;;;;;4.90;2.45;;;;;;;;;;4997017;28;20317;-73
2023/08/05 07:30:11;;;;;;;8.85;3.20;;;;;;;;;;5007475;28;20260;-74
2023/08/05 07:32:37;;;;;;;7.65;3.05;;;;;;;;;;4995295;28;20281;-73
2023/08/05 07:35:03;;;;;;;5.25;3.17;;;;;;;;;;5005603;28;20664;-73
2023/08/05 07:37:30;;;;;;;5.80;2.95;;;;;;;;;;4988255;28;20191;-73
2023/08/05 07:39:57;;;;;;;5.68;2.45;;;;;;;;;;5005906;28;20262;-73
2023/08/05 07:42:25;;;;;;;7.47;3.13;;;;;;;;;;5011409;28;20673;-74
2023/08/05 07:44:52;;;;;;;6.90;3.03;;;;;;;;;;4997816;28;20331;-73
2023/08/05 07:47:18;;;;;;;8.48;3.65;;;;;;;;;;5002150;28;20211;-73
2023/08/05 07:49:44;;;;;;;6.97;2.88;;;;;;;;;;5008314;28;20205;-73
2023/08/05 07:52:09;;;;;;;5.78;2.80;;;;;;;;;;5002490;28;20625;-73
2023/08/05 07:54:35;;;;;;;9.60;2.92;;;;;;;;;;4992397;28;20183;-75
2023/08/05 07:57:00;;;;;;;6.82;2.63;;;;;;;;;;5000250;28;20186;-74
2023/08/05 07:59:27;;;;;;;6.05;2.42;;;;;;;;;;5010396;28;20198;-74
2023/08/05 08:01:54;;;;;;;6.18;2.50;;;;;;;;;;5010020;28;20297;-74
2023/08/05 08:04:19;;;;;;;5.95;2.67;;;;;;;;;;5002506;28;20182;-73
2023/08/05 08:06:45;;;;;;;8.25;2.65;;;;;;;;;;5009024;28;20242;-73
2023/08/05 08:09:12;;;;;;;4.30;2.70;;;;;;;;;;4986545;28;20198;-73
2023/08/05 08:11:38;;;;;;;5.72;2.70;;;;;;;;;;5007255;28;20269;-72
2023/08/05 08:14:04;;;;;;;7.45;3.17;;;;;;;;;;4969119;28;20676;-73
2023/08/05 08:16:30;;;;;;;8.32;3.30;;;;;;;;;;4992835;28;20654;-73
2023/08/05 08:18:56;;;;;;;9.85;3.33;;;;;;;;;;4995687;28;20614;-74
2023/08/05 08:21:21;;;;;;;7.50;3.20;;;;;;;;;;5003383;28;20199;-74
2023/08/05 08:23:47;;;;;;;8.00;3.30;;;;;;;;;;5004879;28;20195;-74
2023/08/05 08:26:12;;;;;;;7.50;3.10;;;;;;;;;;4993745;28;20214;-73
2023/08/05 08:28:38;;;;;;;6.43;3.75;;;;;;;;;;5005268;28;20257;-73
2023/08/05 08:31:03;;;;;;;9.88;3.25;;;;;;;;;;5002476;28;20228;-73
2023/08/05 08:33:29;;;;;;;9.00;3.17;;;;;;;;;;5009464;28;20301;-73
2023/08/05 08:35:54;;;;;;;6.60;2.95;;;;;;;;;;5007791;28;20600;-73
2023/08/05 08:38:20;;;;;;;4.65;3.00;;;;;;;;;;5009089;28;20190;-74
2023/08/05 08:41:02;;;;;;;7.32;3.28;;;;;;;;;;4995848;28;20194;-73
2023/08/05 08:43:27;;;;;;;7.45;3.30;;;;;;;;;;4989658;28;20972;-74
2023/08/05 08:45:54;;;;;;;7.03;3.08;;;;;;;;;;5000838;28;20659;-74
2023/08/05 08:48:20;;;;;;;8.93;3.60;;;;;;;;;;4999908;28;20179;-74
2023/08/05 08:50:48;;;;;;;4.20;3.20;;;;;;;;;;5005919;28;20678;-73
2023/08/05 08:53:13;;;;;;;10.23;4.95;;;;;;;;;;5007223;28;20209;-74
2023/08/05 08:55:43;;;;;;;8.82;5.90;;;;;;;;;;5003788;28;20581;-73
2023/08/05 08:58:09;;;;;;;9.07;6.50;;;;;;;;;;4998903;28;20221;-74
2023/08/05 09:00:35;;;;;;;11.23;6.78;;;;;;;;;;5012714;28;20195;-74
2023/08/05 09:03:01;;;;;;;10.40;6.65;;;;;;;;;;5007922;28;20222;-74
2023/08/05 09:05:34;;;;;;;10.57;7.50;;;;;;;;;;5008639;28;20249;-74
2023/08/05 09:08:02;;;;;;;14.80;7.47;;;;;;;;;;5001309;28;20223;-74
2023/08/05 09:10:28;;;;;;;12.98;7.88;;;;;;;;;;4997059;28;20198;-73
2023/08/05 09:12:57;;;;;;;12.18;8.18;;;;;;;;;;5004440;28;20551;-73
2023/08/05 09:15:30;;;;;;;9.00;7.57;;;;;;;;;;5000145;28;20911;-73
2023/08/05 09:17:56;;;;;;;9.48;7.38;;;;;;;;;;5002461;28;20211;-72
2023/08/05 09:20:24;;;;;;;11.70;6.95;;;;;;;;;;5008218;28;20285;-74
2023/08/05 09:22:55;;;;;;;11.77;7.35;;;;;;;;;;5003771;28;20183;-73
2023/08/05 09:25:21;;;;;;;9.65;7.05;;;;;;;;;;5007566;28;20719;-74
2023/08/05 09:27:47;;;;;;;9.30;7.85;;;;;;;;;;4989034;28;20577;-73
2023/08/05 09:30:16;;;;;;;9.98;7.95;;;;;;;;;;4999405;28;20242;-73
2023/08/05 09:32:48;;;;;;;12.15;7.63;;;;;;;;;;4992269;28;20281;-72
2023/08/05 09:35:16;;;;;;;7.60;6.80;;;;;;;;;;4991957;28;20270;-72
2023/08/05 09:37:49;;;;;;;10.63;8.10;;;;;;;;;;5006412;28;20203;-73
2023/08/05 09:40:16;;;;;;;11.63;8.52;;;;;;;;;;5001502;28;20194;-72
2023/08/05 09:42:42;;;;;;;10.82;8.82;;;;;;;;;;5005840;28;20544;-73
2023/08/05 09:45:09;;;;;;;9.88;8.90;;;;;;;;;;4998442;28;20300;-72
2023/08/05 09:47:36;;;;;;;12.15;9.10;;;;;;;;;;5006349;28;20218;-73
2023/08/05 09:50:04;;;;;;;10.90;9.02;;;;;;;;;;5014122;28;20297;-73
2023/08/05 09:52:33;;;;;;;10.57;9.57;;;;;;;;;;5014158;28;21386;-73
2023/08/05 09:55:13;;;;;;;11.02;9.50;;;;;;;;;;4998856;28;20191;-72
2023/08/05 09:57:39;;;;;;;16.00;11.48;;;;;;;;;;5013928;28;20194;-74
2023/08/05 10:00:08;;;;;;;13.00;11.18;;;;;;;;;;4993011;28;21758;-73
2023/08/05 10:02:35;;;;;;;14.75;12.77;;;;;;;;;;4312713;28;10000860;-73
2023/08/05 10:05:02;;;;;;;15.80;13.68;;;;;;;;;;5002927;28;20688;-73
2023/08/05 10:07:27;;;;;;;15.32;13.73;;;;;;;;;;5010855;28;20214;-73
2023/08/05 10:09:53;;;;;;;15.52;12.48;;;;;;;;;;5009471;28;20194;-73
2023/08/05 10:12:32;;;;;;;12.25;10.82;;;;;;;;;;5008545;28;20197;-73
2023/08/05 10:14:59;;;;;;;11.98;10.25;;;;;;;;;;4973278;28;20178;-73
2023/08/05 10:17:25;;;;;;;10.55;9.55;;;;;;;;;;5011796;28;20210;-72
2023/08/05 10:19:51;;;;;;;10.25;8.80;;;;;;;;;;5009968;28;20191;-74
2023/08/05 10:22:24;;;;;;;9.82;8.88;;;;;;;;;;5001313;28;20639;-74
2023/08/05 10:24:50;;;;;;;9.07;8.05;;;;;;;;;;5009851;28;20636;-74
2023/08/05 10:27:15;;;;;;;7.60;5.80;;;;;;;;;;5012038;28;20215;-72
2023/08/05 10:29:54;;;;;;;8.35;6.13;;;;;;;;;;5002868;28;20738;-73
2023/08/05 10:32:31;;;;;;;9.45;6.35;;;;;;;;;;5007469;28;20190;-73
2023/08/05 10:35:25;;;;;;;7.57;5.97;;;;;;;;;;4996794;28;20198;-71
2023/08/05 10:38:09;;;;;;;7.70;6.57;;;;;;;;;;5007069;28;20191;-73
2023/08/05 10:40:52;;;;;;;6.68;6.05;;;;;;;;;;5001552;28;20681;-73
2023/08/05 10:43:30;;;;;;;10.20;5.75;;;;;;;;;;5005358;28;20278;-73
2023/08/05 10:45:57;;;;;;;5.90;4.30;;;;;;;;;;5009750;28;20190;-73
2023/08/05 10:48:30;;;;;;;3.75;3.08;;;;;;;;;;5007865;28;20319;-73
2023/08/05 10:50:56;;;;;;;3.33;2.90;;;;;;;;;;4998079;28;20192;-73
2023/08/05 10:53:22;;;;;;;4.80;3.30;;;;;;;;;;5010624;28;20190;-73
2023/08/05 10:55:48;;;;;;;3.60;2.40;;;;;;;;;;5008470;28;20186;-74
2023/08/05 10:58:50;;;;;;;3.28;2.40;;;;;;;;;;4991460;28;20709;-73
2023/08/05 11:01:16;;;;;;;5.82;1.95;;;;;;;;;;4988561;28;20206;-73
2023/08/05 11:03:46;;;;;;;3.63;2.08;;;;;;;;;;4992991;28;20875;-73
2023/08/05 11:06:13;;;;;;;5.38;2.67;;;;;;;;;;5010600;28;20207;-73
2023/08/05 11:08:40;;;;;;;3.50;2.33;;;;;;;;;;5012144;28;20257;-74
2023/08/05 11:11:07;;;;;;;3.50;2.30;;;;;;;;;;5011005;28;20189;-73
2023/08/05 11:13:37;;;;;;;2.33;1.83;;;;;;;;;;4745282;28;10001022;-74
2023/08/05 11:16:12;;;;;;;2.55;2.00;;;;;;;;;;5002453;28;20442;-73
2023/08/05 11:18:40;;;;;;;6.82;2.80;;;;;;;;;;4990185;28;20259;-73
2023/08/05 11:21:11;;;;;;;3.78;2.17;;;;;;;;;;5001929;28;20258;-73
2023/08/05 11:23:39;;;;;;;2.55;1.90;;;;;;;;;;4996391;28;20183;-73
2023/08/05 11:26:05;;;;;;;4.82;2.25;;;;;;;;;;5006083;28;20253;-74
2023/08/05 11:28:31;;;;;;;3.63;2.20;;;;;;;;;;5008180;28;20239;-73
2023/08/05 11:30:57;;;;;;;5.35;2.08;;;;;;;;;;5018803;28;20248;-73
2023/08/05 11:33:23;;;;;;;4.22;2.50;;;;;;;;;;4992674;28;20622;-74
2023/08/05 11:35:52;;;;;;;2.03;1.70;;;;;;;;;;4990272;28;20197;-73
2023/08/05 11:38:27;;;;;;;2.25;1.60;;;;;;;;;;5006520;28;20308;-73
2023/08/05 11:40:54;;;;;;;2.97;2.00;;;;;;;;;;4974856;28;20179;-72
2023/08/05 11:43:20;;;;;;;2.40;1.58;;;;;;;;;;4994166;28;20668;-72
2023/08/05 11:45:47;;;;;;;1.50;1.30;;;;;;;;;;5016843;28;20182;-74
2023/08/05 11:48:24;;;;;;;5.28;1.77;;;;;;;;;;5009800;28;20261;-73
2023/08/05 11:50:51;;;;;;;6.85;2.00;;;;;;;;;;5003762;28;20221;-73
2023/08/05 11:53:17;;;;;;;2.25;1.65;;;;;;;;;;5000749;28;20186;-73
2023/08/05 11:55:43;;;;;;;2.33;1.60;;;;;;;;;;4997563;28;20215;-73
2023/08/05 11:58:11;;;;;;;5.05;1.40;;;;;;;;;;5012819;28;20191;-73
2023/08/05 12:00:41;;;;;;;5.65;1.73;;;;;;;;;;4990505;28;20234;-73
2023/08/05 12:03:07;;;;;;;3.05;1.58;;;;;;;;;;4999873;28;20193;-76
2023/08/05 12:05:33;;;;;;;3.38;2.20;;;;;;;;;;5001161;28;20191;-76
2023/08/05 12:07:58;;;;;;;4.65;1.58;;;;;;;;;;4988053;28;20229;-73
2023/08/05 12:10:24;;;;;;;1.90;1.40;;;;;;;;;;4997610;28;20205;-73
2023/08/05 12:12:50;;;;;;;2.22;1.85;;;;;;;;;;5010928;28;20195;-74
2023/08/05 12:15:26;;;;;;;2.20;1.98;;;;;;;;;;5011377;28;20222;-73
2023/08/05 12:17:57;;;;;;;2.33;1.80;;;;;;;;;;4988067;28;20312;-73
2023/08/05 12:20:27;;;;;;;5.95;1.83;;;;;;;;;;5016138;28;20201;-74
2023/08/05 12:22:54;;;;;;;3.90;1.75;;;;;;;;;;5004520;28;20187;-73
2023/08/05 12:25:20;;;;;;;2.25;1.48;;;;;;;;;;4974763;28;20282;-73
2023/08/05 12:27:45;;;;;;;4.55;2.20;;;;;;;;;;5004731;28;20690;-73
2023/08/05 12:30:12;;;;;;;2.75;1.50;;;;;;;;;;5007520;28;20300;-74
2023/08/05 12:32:37;;;;;;;3.92;1.40;;;;;;;;;;4992368;28;20671;-73
2023/08/05 12:35:04;;;;;;;1.35;1.25;;;;;;;;;;4990561;28;20187;-72
2023/08/05 12:37:30;;;;;;;1.30;1.20;;;;;;;;;;5004217;28;20593;-74
2023/08/05 12:39:55;;;;;;;1.92;1.30;;;;;;;;;;5002065;28;20222;-73
2023/08/05 12:42:21;;;;;;;1.70;1.42;;;;;;;;;;5005711;28;20204;-73
2023/08/05 12:44:46;;;;;;;6.55;2.67;;;;;;;;;;5015118;28;20222;-74
2023/08/05 12:47:12;;;;;;;4.82;1.92;;;;;;;;;;5000980;28;20218;-74
2023/08/05 12:49:39;;;;;;;1.55;1.30;;;;;;;;;;5002285;28;20187;-73
2023/08/05 12:52:05;;;;;;;3.85;1.50;;;;;;;;;;4994133;28;20223;-74
2023/08/05 12:54:30;;;;;;;2.03;1.67;;;;;;;;;;4999569;28;20209;-74
2023/08/05 12:56:56;;;;;;;6.70;2.25;;;;;;;;;;4992147;28;20176;-75
2023/08/05 12:59:22;;;;;;;2.10;1.75;;;;;;;;;;4991792;28;20199;-74
2023/08/05 13:01:47;;;;;;;1.63;1.30;;;;;;;;;;4993777;28;20646;-74
2023/08/05 13:04:12;;;;;;;2.35;1.35;;;;;;;;;;5007173;28;20214;-74
2023/08/05 13:06:38;;;;;;;3.63;1.85;;;;;;;;;;5001608;28;20299;-74
2023/08/05 13:09:03;;;;;;;3.65;1.80;;;;;;;;;;5002656;28;20202;-74
2023/08/05 13:11:29;;;;;;;2.92;1.80;;;;;;;;;;5012320;28;20227;-74
2023/08/05 13:13:54;;;;;;;3.13;1.40;;;;;;;;;;5004052;28;20198;-73
2023/08/05 13:16:20;;;;;;;1.83;1.70;;;;;;;;;;4988924;28;20183;-73
2023/08/05 13:18:45;;;;;;;2.15;1.58;;;;;;;;;;5007637;28;20254;-73
2023/08/05 13:21:11;;;;;;;1.75;1.65;;;;;;;;;;5001671;28;20496;-73
2023/08/05 13:23:37;;;;;;;3.05;1.95;;;;;;;;;;5005356;28;20195;-73
2023/08/05 13:26:02;;;;;;;5.20;1.88;;;;;;;;;;4992866;28;20195;-73
2023/08/05 13:28:27;;;;;;;4.75;1.67;;;;;;;;;;4997771;28;20231;-72
2023/08/05 13:31:01;;;;;;;3.65;1.80;;;;;;;;;;4993387;28;20282;-73
2023/08/05 13:33:26;;;;;;;3.75;1.60;;;;;;;;;;4998743;28;20195;-73
2023/08/05 13:35:51;;;;;;;2.15;1.75;;;;;;;;;;5006269;28;20191;-72
2023/08/05 13:38:17;;;;;;;2.60;1.83;;;;;;;;;;5012007;28;20281;-73
2023/08/05 13:40:42;;;;;;;3.78;1.60;;;;;;;;;;5003565;28;20199;-73
2023/08/05 13:43:07;;;;;;;1.95;1.85;;;;;;;;;;5000059;28;20348;-73
2023/08/05 13:45:33;;;;;;;3.58;1.23;;;;;;;;;;4999616;28;20244;-72
2023/08/05 13:47:59;;;;;;;0.93;0.90;;;;;;;;;;5011302;28;20241;-74
2023/08/05 13:50:24;;;;;;;1.55;1.08;;;;;;;;;;4992372;28;20187;-74
2023/08/05 13:52:49;;;;;;;3.58;1.60;;;;;;;;;;5000083;28;20206;-72
2023/08/05 13:55:15;;;;;;;5.10;1.88;;;;;;;;;;5001274;28;20184;-75
2023/08/05 13:57:40;;;;;;;5.78;2.47;;;;;;;;;;4999584;28;20213;-74
2023/08/05 14:00:06;;;;;;;4.40;2.75;;;;;;;;;;4999791;28;20191;-74
2023/08/05 14:02:32;;;;;;;5.05;2.60;;;;;;;;;;4998775;28;20686;-73
2023/08/05 14:04:57;;;;;;;5.10;3.03;;;;;;;;;;4994161;28;20191;-71
2023/08/05 14:07:23;;;;;;;2.83;2.55;;;;;;;;;;4992682;28;20289;-72
2023/08/05 14:09:49;;;;;;;6.05;2.70;;;;;;;;;;4994084;28;20706;-72
2023/08/05 14:12:14;;;;;;;5.97;2.80;;;;;;;;;;4996340;28;20436;-73
2023/08/05 14:14:39;;;;;;;4.93;3.00;;;;;;;;;;5009074;28;20260;-74
2023/08/05 14:17:06;;;;;;;3.95;3.33;;;;;;;;;;4999467;28;20251;-75
2023/08/05 14:19:32;;;;;;;5.25;3.13;;;;;;;;;;4997079;28;20551;-73
2023/08/05 14:22:01;;;;;;;4.00;3.05;;;;;;;;;;4987801;28;20557;-74
2023/08/05 14:24:26;;;;;;;2.95;2.53;;;;;;;;;;5014403;28;20198;-75
2023/08/05 14:26:52;;;;;;;7.07;3.35;;;;;;;;;;5009375;28;20655;-74
2023/08/05 14:29:17;;;;;;;4.32;3.70;;;;;;;;;;4982732;28;20294;-74
2023/08/05 14:31:43;;;;;;;5.13;3.45;;;;;;;;;;4983500;28;20184;-75
2023/08/05 14:34:09;;;;;;;5.50;3.30;;;;;;;;;;5007388;28;20202;-73
2023/08/05 14:36:34;;;;;;;5.53;3.78;;;;;;;;;;4991270;28;20231;-74